首页
METAR-TAF:

METAR-TAF

机场 :

Needles Airport

Needles, 加利福尼亚州, 美国

纬度: 34-45-58N, 经度: 114-37-24W, 海拔: 300米

当前天气观测

该预报发布于41分钟前的06:56 UTC
风速3节,风向西转西北
温度 17°C
湿度 34%
气压 1011 hPa
能見度: 16.1公里
天空无云

METAR: KEED 030656Z AUTO 30003KT 10SM CLR 17/01 A2986 RMK AO2 SLP093 T01670006

时间: 00:37 (07:37 UTC)

预报

该预报发布于2小时和12分钟前的05:25 UTC
预报有效从03日的 06点(UTC)到 04日的 06点(UTC)
风速6节,风向西北
能見度: 10公里
天空无云
从 03日的 1800点(UTC)
风速5节,风向多变
能見度: 10公里
散云层高于25000英尺

TAF: KEED 030525Z 0306/0406 32006KT P6SM SKC FM031800 VRB05KT P6SM SCT250

超过4000个机场的气象观测和天气预报(METAR&TAF报告)。

可查询的气象台以黄色和红色小点在地图上表示。

将鼠标移到小点上方,可查看气象台名称。

然后点击查看天气观测和预报。

如需切换地图:点击带黑十字的绿色按钮放大地图;点击带横线的绿色按钮缩小地图;或者点击绿色箭头查看邻近地区的地图。


METAR-TAF: